Estancia Bella Vista, Argentina
Current Conditions -  °F | °C
As of 6:00 AM on Saturday 25 Oct 2014 (Local Time) from SAZN Reporting Station
Clear Clear  
Wind Chill: 14°   Ceiling: Unl
Heat Index: 14°   Visibility: 6mi
Dew Point: 11°   Wind: 1mph
Humidity: 82%   Direction: 270°W
Pressure: 29.91"   Gusts: NA
Location:  42.13°S, 64.69°W
Report Text: SAZN 250900Z 27001KT CAVOK 14/11 Q1013
Loading
Personal Weather Stations






























Interactive Weather Map
Tropical Storm Tracking
New forecast layout! Learn more

10-Day Weather Forecast

Advertisements
Track Severe Weather on mobile